Time;durP1;ratioP1;P1;durP2;ratioP2;P2;SDS_P1;SDS_P2;PMS_P1;PMS_P2;Temp;Humidity;BMP_temperature;BMP_pressure;BME280_temperature;BME280_humidity;BME280_pressure;Samples;Min_cycle;Max_cycle;Signal;HPM_P1;HPM_P2
2021/08/08 00:00:42;;;;;;;;;54.00;45.00;;;;;25.24;73.91;100513.00;4954563;28;8858;-74
2021/08/08 00:03:37;;;;;;;;;54.75;45.25;;;;;24.94;75.01;100520.44;4954253;28;8864;-73
2021/08/08 00:06:33;;;;;;;;;49.00;41.50;;;;;25.30;74.06;100522.56;4954813;28;8839;-73
2021/08/08 00:09:29;;;;;;;;;63.50;52.00;;;;;25.47;73.55;100529.09;4954543;28;8858;-73
2021/08/08 00:12:24;;;;;;;;;62.50;50.75;;;;;25.25;73.54;100530.78;4955045;28;8849;-74
2021/08/08 00:15:20;;;;;;;;;55.25;46.25;;;;;24.75;75.57;100540.97;4954539;28;8839;-76
2021/08/08 00:18:16;;;;;;;;;63.75;48.75;;;;;24.98;75.56;100533.69;4939156;29;8848;-73
2021/08/08 00:21:11;;;;;;;;;61.00;49.50;;;;;24.98;75.37;100516.72;4935430;29;8871;-74
2021/08/08 00:24:07;;;;;;;;;59.25;48.00;;;;;25.09;74.74;100518.16;4934874;29;8837;-74
2021/08/08 00:27:04;;;;;;;;;60.50;48.25;;;;;24.98;75.19;100517.53;4934822;29;8987;-75
2021/08/08 00:29:59;;;;;;;;;72.50;54.50;;;;;24.92;75.77;100507.94;4935654;29;8857;-75
2021/08/08 00:32:55;;;;;;;;;74.67;61.67;;;;;24.89;76.06;100503.94;4935379;29;8860;-75
2021/08/08 00:35:51;;;;;;;;;70.50;57.25;;;;;24.87;76.35;100506.41;4935523;29;8956;-72
2021/08/08 00:38:47;;;;;;;;;61.50;48.75;;;;;24.71;77.13;100514.81;4935096;29;8829;-75
2021/08/08 00:41:43;;;;;;;;;72.75;58.50;;;;;25.01;75.31;100505.34;4934968;29;8887;-73
2021/08/08 00:44:39;;;;;;;;;62.75;51.25;;;;;25.05;75.16;100502.47;4935530;29;8840;-74
2021/08/08 00:47:35;;;;;;;;;66.75;51.50;;;;;25.00;75.28;100512.25;4934731;29;9050;-76
2021/08/08 00:50:30;;;;;;;;;61.50;50.25;;;;;25.03;74.10;100517.06;4934631;29;8855;-75
2021/08/08 00:53:27;;;;;;;;;58.25;46.25;;;;;25.33;74.00;100515.25;4934745;29;8856;-75
2021/08/08 00:56:23;;;;;;;;;54.50;43.75;;;;;25.17;73.70;100507.50;4935518;29;8849;-74
2021/08/08 00:59:18;;;;;;;;;61.50;48.75;;;;;25.16;74.49;100501.03;4934892;29;8999;-74
2021/08/08 01:02:15;;;;;;;;;59.50;46.25;;;;;25.41;72.82;100511.03;4938558;29;8857;-74
2021/08/08 01:05:18;;;;;;;;;54.00;44.00;;;;;25.52;72.61;100522.91;4938605;28;8871;-74
2021/08/08 01:08:22;;;;;;;;;55.25;45.25;;;;;25.53;71.99;100516.00;4938656;29;8852;-74
2021/08/08 01:11:20;;;;;;;;;63.25;48.25;;;;;25.45;71.95;100517.41;4938066;29;8915;-75
2021/08/08 01:14:17;;;;;;;;;56.00;42.75;;;;;25.19;72.25;100516.34;4938187;29;8956;-75
2021/08/08 01:17:15;;;;;;;;;62.50;49.50;;;;;25.19;73.31;100510.66;4933668;28;8831;-75
2021/08/08 01:20:12;;;;;;;;;56.00;45.75;;;;;25.33;72.08;100521.69;4957905;28;8865;-75
2021/08/08 01:23:10;;;;;;;;;54.00;44.00;;;;;25.71;71.83;100524.94;4958313;28;8866;-74
2021/08/08 01:26:06;;;;;;;;;54.50;44.00;;;;;25.80;70.81;100532.03;4958941;28;8850;-75
2021/08/08 01:29:03;;;;;;;;;55.00;43.75;;;;;25.92;70.86;100526.50;4944293;28;8858;-76
2021/08/08 01:31:58;;;;;;;;;57.25;45.00;;;;;25.86;70.84;100530.28;4957436;28;8846;-74
2021/08/08 01:34:54;;;;;;;;;57.25;45.50;;;;;25.72;70.53;100537.06;4957476;28;8855;-74
2021/08/08 01:37:49;;;;;;;;;54.00;43.00;;;;;25.61;70.83;100520.31;4956214;28;8843;-74
2021/08/08 01:40:54;;;;;;;;;55.00;44.50;;;;;25.67;71.50;100515.69;4957987;28;8854;-75
2021/08/08 01:43:51;;;;;;;;;56.25;45.75;;;;;25.64;71.15;100519.41;4956636;28;8841;-75
2021/08/08 01:46:54;;;;;;;;;55.25;45.25;;;;;25.80;70.77;100515.84;4956682;28;8962;-75
2021/08/08 01:49:50;;;;;;;;;65.25;50.75;;;;;25.75;71.35;100519.19;4957534;28;8977;-76
2021/08/08 01:52:46;;;;;;;;;53.00;44.25;;;;;25.83;71.20;100520.63;4956694;28;8834;-75
2021/08/08 01:55:42;;;;;;;;;53.50;44.50;;;;;25.71;71.48;100527.78;4957890;28;8838;-75
2021/08/08 01:58:38;;;;;;;;;55.00;44.50;;;;;25.76;71.56;100541.44;4956916;28;8869;-73
2021/08/08 02:01:33;;;;;;;;;51.00;43.00;;;;;25.41;73.33;100534.47;4957342;28;8867;-74
2021/08/08 02:04:29;;;;;;;;;50.00;42.50;;;;;25.16;74.54;100523.66;4956535;28;8859;-75
2021/08/08 02:07:24;;;;;;;;;54.25;43.00;;;;;25.19;74.16;100525.63;4957257;28;8851;-75
2021/08/08 02:10:20;;;;;;;;;56.75;46.50;;;;;25.13;74.57;100516.03;4956411;28;8827;-74
2021/08/08 02:13:16;;;;;;;;;55.25;45.75;;;;;25.12;74.65;100516.47;4956115;28;8834;-76
2021/08/08 02:16:11;;;;;;;;;49.75;42.50;;;;;25.41;73.92;100500.50;4956324;28;8839;-74
2021/08/08 02:19:07;;;;;;;;;58.25;48.00;;;;;25.33;73.91;100493.41;4918719;29;8879;-74
2021/08/08 02:22:03;;;;;;;;;66.00;53.00;;;;;25.43;73.69;100492.38;4919018;29;8885;-74
2021/08/08 02:25:01;;;;;;;;;48.50;40.75;;;;;25.35;73.78;100487.28;4918712;29;8835;-74
2021/08/08 02:27:56;;;;;;;;;55.50;46.50;;;;;25.07;74.53;100489.47;4918054;29;8919;-75
2021/08/08 02:30:52;;;;;;;;;54.50;45.50;;;;;25.30;74.15;100496.28;4918283;29;9619;-74
2021/08/08 02:33:48;;;;;;;;;51.75;42.75;;;;;25.36;73.61;100501.00;4918028;29;8885;-75
2021/08/08 02:36:43;;;;;;;;;49.25;41.75;;;;;25.14;74.16;100511.97;4918046;29;8843;-74
2021/08/08 02:39:39;;;;;;;;;47.75;39.75;;;;;25.27;73.84;100506.47;4917972;29;8886;-74
2021/08/08 02:42:34;;;;;;;;;52.50;43.25;;;;;25.36;73.64;100512.31;4918401;29;9697;-75
2021/08/08 02:45:30;;;;;;;;;51.75;43.00;;;;;25.34;73.48;100519.66;4917740;29;8847;-74
2021/08/08 02:48:26;;;;;;;;;46.75;38.75;;;;;25.24;73.91;100524.31;4917303;29;8827;-75
2021/08/08 02:51:21;;;;;;;;;48.25;40.75;;;;;25.19;74.23;100525.63;4918956;29;9016;-74
2021/08/08 02:54:18;;;;;;;;;42.75;37.00;;;;;25.05;74.56;100527.94;4917520;29;8925;-74
2021/08/08 02:57:13;;;;;;;;;25.25;25.25;;;;;24.84;75.01;100521.41;4906046;29;8874;-75
2021/08/08 03:00:09;;;;;;;;;42.50;36.75;;;;;24.88;75.44;100515.69;4919224;29;8839;-74
2021/08/08 03:03:06;;;;;;;;;39.25;34.50;;;;;24.98;75.20;100526.00;4917542;29;8847;-74
2021/08/08 03:06:08;;;;;;;;;39.00;34.50;;;;;24.98;75.55;100534.50;4917412;29;8878;-75
2021/08/08 03:09:03;;;;;;;;;43.75;36.50;;;;;24.99;75.01;100533.25;4918288;29;8941;-73
2021/08/08 03:11:59;;;;;;;;;28.25;27.50;;;;;25.16;74.57;100537.81;4906001;29;8863;-74
2021/08/08 03:14:54;;;;;;;;;49.25;39.75;;;;;25.35;74.25;100541.88;4917681;29;8855;-75
2021/08/08 03:17:50;;;;;;;;;59.50;49.25;;;;;25.09;74.20;100532.31;4941750;28;8835;-75
2021/08/08 03:20:45;;;;;;;;;39.00;33.75;;;;;25.10;74.88;100525.41;4956240;28;8922;-75
2021/08/08 03:23:41;;;;;;;;;55.00;43.25;;;;;25.11;74.65;100526.19;4941806;28;8873;-75
2021/08/08 03:26:37;;;;;;;;;78.00;66.00;;;;;24.95;74.67;100533.34;4955445;28;8933;-75
2021/08/08 03:29:32;;;;;;;;;61.00;46.75;;;;;24.94;75.54;100528.13;4954878;28;8994;-75
2021/08/08 03:32:28;;;;;;;;;65.75;51.50;;;;;25.27;74.26;100536.78;4954208;28;8835;-74
2021/08/08 03:35:30;;;;;;;;;75.25;60.00;;;;;25.32;73.65;100530.63;4945994;28;8880;-74
2021/08/08 03:38:27;;;;;;;;;83.67;72.33;;;;;25.30;73.73;100535.91;4920084;29;8957;-75
2021/08/08 03:41:23;;;;;;;;;93.50;75.25;;;;;25.32;73.76;100544.78;4893795;29;9331;-77
2021/08/08 03:44:19;;;;;;;;;71.00;57.00;;;;;25.44;73.46;100544.13;4917203;29;9551;-76
2021/08/08 03:47:14;;;;;;;;;73.00;58.75;;;;;25.55;72.59;100558.06;4917884;29;8943;-75
2021/08/08 03:50:11;;;;;;;;;80.33;66.00;;;;;25.51;72.55;100567.41;4917179;29;8863;-74
2021/08/08 03:53:07;;;;;;;;;75.00;61.75;;;;;25.33;73.37;100580.34;4917800;29;9014;-74
2021/08/08 03:56:02;;;;;;;;;74.50;58.25;;;;;25.31;74.05;100580.78;4905043;29;8855;-76
2021/08/08 03:58:58;;;;;;;;;77.67;59.67;;;;;25.23;74.10;100582.97;4916868;29;9731;-76
2021/08/08 04:01:53;;;;;;;;;74.50;60.25;;;;;25.35;73.67;100581.50;4933741;28;8949;-76
2021/08/08 04:04:49;;;;;;;;;73.25;55.50;;;;;25.35;73.26;100592.03;4950364;29;8848;-76
2021/08/08 04:07:45;;;;;;;;;73.75;58.00;;;;;25.14;74.16;100599.69;4937244;29;9598;-76
2021/08/08 04:10:41;;;;;;;;;66.25;49.25;;;;;25.15;74.12;100606.13;4937171;29;8833;-76
2021/08/08 04:13:37;;;;;;;;;60.00;47.50;;;;;25.16;74.34;100611.38;4936057;29;8866;-77
2021/08/08 04:16:32;;;;;;;;;62.50;48.50;;;;;25.35;74.01;100618.28;4922444;29;8836;-74
2021/08/08 04:19:30;;;;;;;;;71.25;55.75;;;;;25.37;73.78;100632.81;4937234;29;8960;-76
2021/08/08 04:22:25;;;;;;;;;72.75;54.00;;;;;25.56;73.23;100634.06;4935518;29;8841;-76
2021/08/08 04:25:22;;;;;;;;;64.25;49.25;;;;;25.46;73.63;100649.25;4935126;29;8848;-76
2021/08/08 04:28:18;;;;;;;;;64.50;49.75;;;;;25.45;73.08;100639.13;4935481;29;8860;-76
2021/08/08 06:59:18;;;;;;;;;36.80;33.80;;;;;27.47;64.39;100634.84;4935477;29;8825;-77
2021/08/08 07:02:13;;;;;;;;;41.80;36.60;;;;;27.43;65.10;100629.25;4924005;29;8872;-75
2021/08/08 07:05:09;;;;;;;;;43.60;37.60;;;;;27.23;65.13;100626.56;4946118;28;8866;-75
2021/08/08 07:08:07;;;;;;;;;38.40;34.40;;;;;27.46;64.86;100625.53;4945742;28;9028;-75
2021/08/08 07:10:35;;;;;;;;;37.60;33.80;;;;;27.69;64.34;100618.81;4925554;28;9012;-75
2021/08/08 07:13:03;;;;;;;;;31.60;29.60;;;;;27.94;63.70;100623.75;4946941;28;8881;-74
2021/08/08 07:15:32;;;;;;;;;47.50;40.00;;;;;28.14;62.51;100635.72;4944522;28;8862;-76
2021/08/08 07:18:00;;;;;;;;;40.40;35.20;;;;;28.52;61.77;100630.06;4944544;28;8839;-76
2021/08/08 07:20:56;;;;;;;;;37.00;33.40;;;;;28.41;61.96;100614.59;4931999;28;8847;-75
2021/08/08 07:23:52;;;;;;;;;41.40;36.40;;;;;28.70;60.99;100614.44;4942841;28;8856;-75
2021/08/08 07:26:48;;;;;;;;;43.80;36.80;;;;;28.65;60.92;100601.56;4946553;29;8876;-74
2021/08/08 07:29:44;;;;;;;;;43.80;37.80;;;;;28.80;60.25;100601.88;4935512;29;9594;-74
2021/08/08 07:32:39;;;;;;;;;48.00;40.60;;;;;28.65;60.40;100593.03;4935462;29;9653;-75
2021/08/08 07:35:27;;;;;;;;;49.00;41.00;;;;;28.94;59.07;100590.03;4936808;29;8924;-74
2021/08/08 07:38:23;;;;;;;;;51.80;43.60;;;;;28.68;59.51;100591.34;4935648;29;8841;-74
2021/08/08 07:40:52;;;;;;;;;49.40;41.00;;;;;29.07;59.41;100593.66;4937994;29;8848;-74
2021/08/08 07:43:47;;;;;;;;;52.60;43.60;;;;;29.14;58.19;100589.75;4935943;29;9599;-74
2021/08/08 07:46:43;;;;;;;;;50.60;43.20;;;;;28.84;59.14;100579.81;4935528;29;8848;-74
2021/08/08 07:49:39;;;;;;;;;45.40;38.40;;;;;28.45;59.65;100587.63;4936061;29;8869;-74
2021/08/08 07:52:06;;;;;;;;;38.80;33.60;;;;;28.31;60.18;100584.44;4936804;29;8939;-75
2021/08/08 07:55:04;;;;;;;;;60.25;46.50;;;;;28.22;61.06;100566.00;4935315;29;8864;-73
2021/08/08 07:58:00;;;;;;;;;50.00;42.20;;;;;28.27;60.99;100564.63;4935133;29;8861;-73
2021/08/08 08:00:55;;;;;;;;;48.60;39.40;;;;;27.93;60.86;100571.00;4935494;29;8852;-75
2021/08/08 08:03:45;;;;;;;;;48.00;39.60;;;;;28.01;61.20;100577.25;4937149;29;8947;-75
2021/08/08 08:06:42;;;;;;;;;49.20;40.20;;;;;28.29;60.29;100579.16;4939295;29;8951;-75
2021/08/08 08:09:38;;;;;;;;;46.60;38.80;;;;;28.43;60.65;100589.31;4934510;29;8860;-75
2021/08/08 08:12:06;;;;;;;;;32.00;30.20;;;;;28.42;61.03;100594.22;4936843;29;8873;-74
2021/08/08 08:14:34;;;;;;;;;41.60;36.20;;;;;28.32;60.77;100595.38;4937153;29;8940;-76
2021/08/08 08:17:31;;;;;;;;;36.20;31.80;;;;;28.46;60.73;100609.13;4917158;29;9605;-74
2021/08/08 08:19:59;;;;;;;;;40.20;34.00;;;;;28.44;60.99;100600.22;4920074;28;8871;-75
2021/08/08 08:22:55;;;;;;;;;49.20;40.80;;;;;28.50;60.19;100604.09;4935684;29;8845;-75
2021/08/08 08:25:51;;;;;;;;;45.20;38.40;;;;;28.40;60.05;100599.56;4917939;29;9032;-75
2021/08/08 08:28:47;;;;;;;;;45.40;37.60;;;;;28.59;61.26;100596.91;4929088;29;8861;-77
2021/08/08 08:31:26;;;;;;;;;33.80;31.40;;;;;28.75;60.08;100593.94;4935748;29;8853;-75
2021/08/08 08:33:54;;;;;;;;;27.00;27.00;;;;;28.67;60.18;100584.03;4934995;29;8872;-76
2021/08/08 08:36:50;;;;;;;;;34.40;32.00;;;;;28.89;59.98;100584.91;4932613;29;8862;-76
2021/08/08 08:39:46;;;;;;;;;26.60;26.60;;;;;28.56;59.78;100597.84;4931522;29;8913;-76
2021/08/08 08:42:43;;;;;;;;;35.40;31.80;;;;;28.91;60.42;100593.81;4930456;29;8857;-75
2021/08/08 08:45:13;;;;;;;;;45.20;35.80;;;;;28.86;60.56;100597.22;4930768;29;8871;-76
2021/08/08 08:48:10;;;;;;;;;41.40;36.20;;;;;29.04;60.45;100603.09;4917789;29;8857;-74
2021/08/08 08:51:08;;;;;;;;;41.20;36.00;;;;;28.92;60.81;100603.16;4929545;29;8848;-76
2021/08/08 08:54:04;;;;;;;;;42.60;36.40;;;;;29.21;60.89;100606.56;4930268;29;9653;-74
2021/08/08 08:56:46;;;;;;;;;41.20;35.60;;;;;29.35;60.50;100620.28;4929731;29;8871;-75
2021/08/08 08:59:14;;;;;;;;;45.00;38.00;;;;;29.17;60.64;100617.31;4932422;29;8841;-74
2021/08/08 09:01:56;;;;;;;;;43.40;35.80;;;;;29.54;60.18;100617.63;4931813;29;8848;-75
2021/08/08 09:04:51;;;;;;;;;40.80;35.40;;;;;29.72;58.67;100623.44;4929641;29;8875;-75
2021/08/08 09:07:19;;;;;;;;;45.40;38.20;;;;;30.20;57.83;100626.91;4933445;29;8888;-75
2021/08/08 09:10:16;;;;;;;;;46.00;37.00;;;;;30.21;58.06;100633.41;4935900;29;8844;-75
2021/08/08 09:13:13;;;;;;;;;43.40;36.20;;;;;30.25;57.71;100634.84;4934996;29;8864;-74
2021/08/08 09:16:15;;;;;;;;;41.60;36.20;;;;;30.50;57.19;100630.19;4935266;29;8853;-75
2021/08/08 09:19:22;;;;;;;;;37.80;33.80;;;;;30.55;56.24;100636.09;4935300;29;8859;-75
2021/08/08 09:22:22;;;;;;;;;27.20;25.40;;;;;31.15;55.45;100631.97;4935873;29;8991;-75
2021/08/08 09:25:22;;;;;;;;;39.00;34.80;;;;;31.10;56.32;100639.09;4920146;29;8852;-74
2021/08/08 09:28:18;;;;;;;;;44.80;38.20;;;;;31.38;55.53;100633.44;4938241;29;8849;-75
2021/08/08 09:31:19;;;;;;;;;46.60;38.60;;;;;31.56;55.48;100633.41;4928261;29;8992;-75
2021/08/08 09:34:39;;;;;;;;;48.80;41.40;;;;;31.70;54.30;100647.06;4939978;29;8844;-76
2021/08/08 09:37:16;;;;;;;;;44.60;37.60;;;;;31.52;54.95;100655.66;4921665;29;8865;-75
2021/08/08 09:40:14;;;;;;;;;51.60;40.60;;;;;31.22;55.15;100663.09;4937668;29;8884;-75
2021/08/08 09:43:12;;;;;;;;;52.60;42.20;;;;;31.17;55.12;100664.50;4932565;29;8876;-74
2021/08/08 09:46:18;;;;;;;;;50.40;42.00;;;;;31.45;54.75;100668.19;4931134;29;8825;-75
2021/08/08 09:49:14;;;;;;;;;39.40;35.00;;;;;31.13;53.84;100666.72;4935441;29;9015;-76
2021/08/08 09:51:54;;;;;;;;;35.80;32.60;;;;;30.91;54.94;100669.69;4915737;29;8947;-75
2021/08/08 09:54:49;;;;;;;;;32.20;31.00;;;;;31.12;53.42;100676.53;4933486;29;8912;-76
2021/08/08 09:57:17;;;;;;;;;34.00;31.80;;;;;31.20;54.85;100668.44;4932953;29;8904;-75
2021/08/08 10:00:31;;;;;;;;;31.20;29.40;;;;;31.25;53.90;100673.56;4933321;29;8849;-75
2021/08/08 10:03:00;;;;;;;;;32.80;30.60;;;;;31.42;54.20;100682.63;4930431;29;8876;-76
2021/08/08 10:05:56;;;;;;;;;30.20;29.20;;;;;31.68;53.62;100678.19;4935303;28;8964;-76
2021/08/08 10:08:52;;;;;;;;;28.40;28.00;;;;;32.30;52.19;100689.22;4946050;29;8861;-75
2021/08/08 10:11:50;;;;;;;;;23.80;23.80;;;;;32.04;52.79;100691.66;4948673;28;8868;-75
2021/08/08 10:14:20;;;;;;;;;25.20;24.60;;;;;32.35;51.59;100682.06;4957126;28;8877;-75
2021/08/08 10:17:16;;;;;;;;;31.20;29.00;;;;;32.50;51.63;100691.53;4944011;29;8854;-75
2021/08/08 10:20:11;;;;;;;;;32.20;30.00;;;;;32.60;51.47;100684.53;4920372;29;8841;-76
2021/08/08 10:22:54;;;;;;;;;35.80;32.00;;;;;32.82;50.46;100683.44;4937048;29;8856;-76
2021/08/08 10:25:22;;;;;;;;;33.00;30.80;;;;;32.86;50.12;100684.09;4937619;29;8853;-77
2021/08/08 10:28:13;;;;;;;;;36.80;33.20;;;;;33.17;49.91;100681.66;4940366;29;8861;-75
2021/08/08 10:31:09;;;;;;;;;37.40;32.60;;;;;33.65;48.02;100680.84;4938141;29;8828;-75
2021/08/08 10:34:05;;;;;;;;;33.20;31.20;;;;;33.46;49.41;100688.81;4934422;28;8853;-75
2021/08/08 10:36:50;;;;;;;;;31.20;30.00;;;;;33.04;49.30;100678.25;4943937;28;8861;-76
2021/08/08 10:39:46;;;;;;;;;39.60;34.20;;;;;32.94;50.66;100681.66;4941674;28;8849;-75
2021/08/08 10:42:18;;;;;;;;;49.20;38.60;;;;;32.95;49.86;100678.31;4934548;29;8865;-77
2021/08/08 10:44:46;;;;;;;;;45.00;38.20;;;;;33.06;49.38;100672.06;4938123;29;8841;-75
2021/08/08 10:47:52;;;;;;;;;43.00;36.80;;;;;33.41;48.37;100663.69;4922589;29;8849;-75
2021/08/08 10:50:20;;;;;;;;;41.60;36.00;;;;;33.90;48.05;100674.59;4937539;29;8841;-76
2021/08/08 10:53:25;;;;;;;;;32.80;30.80;;;;;33.99;47.01;100676.56;4929929;29;8849;-74
2021/08/08 10:56:21;;;;;;;;;29.00;28.40;;;;;33.79;48.42;100680.06;4939264;29;8845;-73
2021/08/08 10:58:48;;;;;;;;;30.80;29.60;;;;;33.92;47.87;100672.00;4940516;29;9685;-75
2021/08/08 11:01:47;;;;;;;;;32.20;30.60;;;;;33.52;48.86;100672.53;4939249;29;8869;-75
2021/08/08 11:04:43;;;;;;;;;42.20;35.20;;;;;33.98;48.18;100677.84;4936981;29;8871;-75
2021/08/08 11:07:54;;;;;;;;;36.80;32.40;;;;;33.56;48.40;100672.31;4932721;28;8849;-73
2021/08/08 11:10:50;;;;;;;;;20.40;20.40;;;;;33.86;47.68;100664.53;4931920;29;8836;-75
2021/08/08 11:13:46;;;;;;;;;33.60;31.20;;;;;34.04;47.57;100669.31;4932089;29;8853;-74
2021/08/08 11:16:44;;;;;;;;;34.60;32.20;;;;;34.03;47.57;100665.66;4930911;29;8932;-74
2021/08/08 11:19:42;;;;;;;;;28.20;27.80;;;;;34.15;46.87;100660.94;4931178;29;8878;-76
2021/08/08 11:22:38;;;;;;;;;30.60;29.20;;;;;34.63;45.63;100661.47;4930851;29;8877;-74
2021/08/08 11:25:12;;;;;;;;;27.80;27.40;;;;;34.88;45.71;100664.94;4932671;29;8872;-75
2021/08/08 11:28:10;;;;;;;;;28.20;28.00;;;;;34.83;45.69;100666.47;4940181;29;8939;-74
2021/08/08 11:31:06;;;;;;;;;37.40;32.60;;;;;34.90;44.80;100663.19;4932902;28;8913;-75
2021/08/08 11:33:34;;;;;;;;;32.20;31.00;;;;;34.78;44.32;100667.16;4936836;29;8873;-74
2021/08/08 11:36:26;;;;;;;;;35.00;32.20;;;;;34.34;45.43;100661.47;4936731;29;8857;-73
2021/08/08 11:38:58;;;;;;;;;35.60;31.40;;;;;34.42;46.07;100669.22;4936678;29;8876;-73
2021/08/08 11:41:31;;;;;;;;;33.80;31.00;;;;;34.18;46.39;100672.19;4936803;29;8876;-73
2021/08/08 11:44:39;;;;;;;;;34.60;32.00;;;;;33.74;47.73;100661.50;4918340;29;8864;-74
2021/08/08 11:47:34;;;;;;;;;40.40;34.60;;;;;34.34;46.57;100668.00;4923410;29;8847;-73
2021/08/08 11:50:31;;;;;;;;;42.20;35.00;;;;;34.28;46.60;100665.06;4932764;29;8863;-73
2021/08/08 11:53:42;;;;;;;;;20.80;20.80;;;;;33.70;47.18;100678.09;4916910;29;8833;-74
2021/08/08 11:56:38;;;;;;;;;31.60;30.40;;;;;33.57;47.97;100671.03;4930087;28;8844;-73
2021/08/08 11:59:34;;;;;;;;;40.00;34.40;;;;;33.29;48.15;100670.44;4936453;29;8841;-74
2021/08/08 12:02:30;;;;;;;;;30.00;28.40;;;;;32.91;49.43;100664.19;4936221;29;8935;-74
2021/08/08 12:05:27;;;;;;;;;38.00;34.00;;;;;33.10;49.19;100669.78;4916559;29;8946;-74
2021/08/08 12:08:23;;;;;;;;;47.00;40.80;;;;;33.52;48.38;100663.13;4944208;28;8871;-75
2021/08/08 12:11:20;;;;;;;;;46.20;39.40;;;;;33.83;48.26;100659.81;4954764;28;8866;-74
2021/08/08 12:14:16;;;;;;;;;41.40;34.00;;;;;33.78;47.71;100663.34;4955452;28;8878;-75
2021/08/08 12:17:17;;;;;;;;;46.40;39.40;;;;;33.59;48.94;100672.16;4941695;28;8892;-73
2021/08/08 12:20:13;;;;;;;;;40.00;35.00;;;;;33.62;48.76;100664.63;4935788;29;8954;-75
2021/08/08 12:23:17;;;;;;;;;31.80;30.60;;;;;33.41;48.74;100670.19;4944231;28;8857;-74
2021/08/08 12:26:24;;;;;;;;;27.80;27.80;;;;;32.96;49.90;100671.28;4943139;28;8846;-75
2021/08/08 12:29:30;;;;;;;;;33.80;29.80;;;;;33.38;49.59;100684.75;4934115;28;8842;-75
2021/08/08 12:32:32;;;;;;;;;27.00;27.00;;;;;33.37;49.21;100686.00;4922061;28;8868;-75
2021/08/08 12:35:34;;;;;;;;;32.20;31.00;;;;;33.61;48.54;100677.38;4934708;28;8842;-74
2021/08/08 12:38:29;;;;;;;;;31.00;30.00;;;;;33.82;48.31;100667.63;4934004;28;8985;-75
2021/08/08 12:40:58;;;;;;;;;37.80;33.40;;;;;34.31;47.84;100668.22;4950546;28;9706;-74
2021/08/08 12:43:56;;;;;;;;;34.40;31.80;;;;;34.44;47.58;100680.22;4948823;29;8865;-74
2021/08/08 12:46:59;;;;;;;;;29.80;27.60;;;;;34.40;46.72;100666.06;4934455;28;8858;-75
2021/08/08 12:49:55;;;;;;;;;33.60;31.00;;;;;34.68;46.82;100666.50;4933927;28;8838;-73
2021/08/08 12:52:51;;;;;;;;;32.40;30.00;;;;;34.95;45.79;100667.41;4931749;29;8879;-73
2021/08/08 12:55:48;;;;;;;;;28.20;27.80;;;;;35.00;45.46;100663.84;4934574;28;8971;-74
2021/08/08 12:58:36;;;;;;;;;24.20;23.60;;;;;35.08;45.52;100656.38;4951434;29;8853;-73
2021/08/08 13:01:33;;;;;;;;;25.40;25.00;;;;;34.80;45.28;100656.75;4937400;28;8865;-75
2021/08/08 13:04:28;;;;;;;;;23.20;23.20;;;;;34.91;45.45;100655.38;4938824;29;8875;-75
2021/08/08 14:39:26;;;;;;;;;60.60;44.20;;;;;32.83;50.69;100676.47;4934337;29;8813;-74
2021/08/08 14:42:21;;;;;;;;;50.40;41.80;;;;;32.70;51.26;100668.09;4937432;29;8868;-75
2021/08/08 14:45:18;;;;;;;;;53.20;42.00;;;;;32.48;52.15;100658.97;4937517;29;8836;-75
2021/08/08 14:47:46;;;;;;;;;49.80;41.40;;;;;32.40;52.30;100666.31;4937914;29;8872;-74
2021/08/08 14:50:13;;;;;;;;;48.20;40.20;;;;;32.53;52.40;100661.19;4937980;29;8853;-75
2021/08/08 14:52:41;;;;;;;;;42.80;37.40;;;;;32.34;53.37;100664.09;4938105;29;8860;-74
2021/08/08 14:55:37;;;;;;;;;29.20;24.00;;;;;32.21;53.86;100657.00;4935409;29;8869;-74
2021/08/08 14:58:04;;;;;;;;;44.60;38.00;;;;;32.21;54.32;100654.91;4937548;29;8857;-74
2021/08/08 15:00:33;;;;;;;;;41.80;36.40;;;;;32.18;54.17;100658.72;4938284;29;8974;-74
2021/08/08 15:03:03;;;;;;;;;38.60;34.60;;;;;32.33;53.84;100662.53;4939084;29;8860;-74
2021/08/08 15:05:31;;;;;;;;;45.20;38.40;;;;;32.22;53.69;100659.38;4937378;29;8887;-74
2021/08/08 15:08:18;;;;;;;;;51.60;39.60;;;;;32.05;54.71;100655.25;4937625;29;8845;-75
2021/08/08 15:11:06;;;;;;;;;49.00;41.40;;;;;31.97;55.20;100663.38;4937758;29;8943;-75
2021/08/08 15:13:35;;;;;;;;;41.60;36.40;;;;;32.06;54.77;100656.88;4937472;29;8873;-74
2021/08/08 15:16:30;;;;;;;;;48.80;39.60;;;;;31.96;55.56;100658.16;4935298;29;8857;-75
2021/08/08 15:19:26;;;;;;;;;48.20;39.00;;;;;31.83;56.14;100660.41;4919502;29;8845;-76
2021/08/08 15:21:54;;;;;;;;;48.40;40.20;;;;;31.94;55.30;100663.56;4936297;29;8865;-75
2021/08/08 15:24:50;;;;;;;;;38.40;33.80;;;;;31.93;55.27;100659.91;4935872;29;8924;-75
2021/08/08 15:27:23;;;;;;;;;37.40;33.20;;;;;31.76;55.76;100670.09;4938341;29;8884;-74
2021/08/08 15:30:18;;;;;;;;;41.60;33.60;;;;;31.73;55.68;100673.88;4936649;29;8953;-74
2021/08/08 15:33:14;;;;;;;;;47.40;38.40;;;;;31.59;56.39;100685.97;4917751;29;8839;-75
2021/08/08 15:36:10;;;;;;;;;49.40;39.80;;;;;31.65;56.83;100698.34;4929024;29;8871;-74
2021/08/08 15:38:53;;;;;;;;;55.00;45.00;;;;;31.49;56.67;100696.59;4935340;29;9707;-74
2021/08/08 15:41:43;;;;;;;;;55.40;45.20;;;;;31.55;56.84;100697.56;4903438;29;8874;-74
2021/08/08 15:44:39;;;;;;;;;54.00;42.00;;;;;31.51;57.58;100699.78;4932349;29;8891;-74
2021/08/08 15:47:20;;;;;;;;;47.40;37.60;;;;;31.45;57.84;100696.78;4935152;29;8892;-76
2021/08/08 15:50:02;;;;;;;;;49.80;41.00;;;;;31.49;57.27;100705.97;4920378;29;8884;-75
2021/08/08 15:52:58;;;;;;;;;52.40;42.00;;;;;31.27;58.32;100702.47;4935604;29;9055;-75
2021/08/08 15:55:54;;;;;;;;;50.40;41.60;;;;;31.34;57.53;100707.88;4935518;29;8864;-75
2021/08/08 15:58:49;;;;;;;;;46.40;39.80;;;;;31.18;58.53;100706.06;4918926;29;8833;-77
2021/08/08 16:01:45;;;;;;;;;44.00;37.20;;;;;31.17;58.48;100707.34;4929472;29;8857;-75
2021/08/08 16:04:40;;;;;;;;;46.00;38.60;;;;;31.20;58.21;100714.16;4930846;29;8860;-75
2021/08/08 16:07:36;;;;;;;;;45.00;38.40;;;;;31.22;58.11;100714.53;4927493;29;8879;-74
2021/08/08 16:10:04;;;;;;;;;44.40;37.00;;;;;31.04;59.17;100709.53;4930969;29;8853;-75
2021/08/08 16:13:00;;;;;;;;;38.20;33.00;;;;;31.05;59.42;100713.16;4931160;29;8920;-74
2021/08/08 16:15:55;;;;;;;;;41.80;34.80;;;;;31.10;59.31;100715.41;4932083;29;8903;-74
2021/08/08 16:18:51;;;;;;;;;41.60;34.40;;;;;31.09;59.17;100717.47;4930484;29;8848;-75
2021/08/08 16:21:46;;;;;;;;;41.60;35.40;;;;;31.09;59.54;100728.91;4931570;29;8849;-72
2021/08/08 16:24:43;;;;;;;;;40.40;34.40;;;;;31.04;60.41;100720.16;4932782;29;8844;-72
2021/08/08 16:27:39;;;;;;;;;48.40;39.80;;;;;31.10;60.08;100721.91;4934695;29;8847;-71
2021/08/08 16:30:35;;;;;;;;;38.80;34.00;;;;;31.04;60.12;100723.00;4934357;29;8861;-72
2021/08/08 16:33:31;;;;;;;;;35.20;32.20;;;;;30.97;60.26;100730.59;4933633;29;8852;-72
2021/08/08 16:36:27;;;;;;;;;36.60;31.20;;;;;31.02;60.46;100722.69;4923230;29;8883;-71
2021/08/08 16:39:22;;;;;;;;;33.60;31.40;;;;;31.10;60.34;100729.69;4934596;29;8857;-73
2021/08/08 16:42:18;;;;;;;;;28.40;28.40;;;;;31.10;60.51;100727.63;4934844;29;8879;-73
2021/08/08 16:45:14;;;;;;;;;29.80;28.60;;;;;30.87;60.93;100729.00;4935270;29;8833;-72
2021/08/08 16:48:10;;;;;;;;;28.20;28.20;;;;;30.73;61.68;100723.84;4922539;29;8865;-73
2021/08/08 16:51:06;;;;;;;;;20.80;20.80;;;;;30.69;61.62;100726.06;4935302;29;8955;-73
2021/08/08 16:54:01;;;;;;;;;28.40;27.80;;;;;30.76;61.59;100727.84;4935578;29;8849;-73
2021/08/08 16:56:58;;;;;;;;;25.60;25.60;;;;;30.55;61.91;100729.47;4935777;29;8809;-73
2021/08/08 16:59:54;;;;;;;;;24.60;24.60;;;;;30.66;61.56;100729.84;4935345;29;8857;-73
2021/08/08 17:02:49;;;;;;;;;28.00;28.00;;;;;30.67;61.85;100735.13;4930505;29;8837;-73
2021/08/08 17:05:47;;;;;;;;;28.40;28.40;;;;;30.60;61.70;100738.22;4930028;29;9571;-74
2021/08/08 17:08:42;;;;;;;;;27.60;27.60;;;;;30.35;62.39;100744.88;4915860;29;9578;-73
2021/08/08 17:11:38;;;;;;;;;28.20;27.40;;;;;30.43;62.77;100753.97;4930617;29;8848;-74